»·PEaware :: GTI515 KBFI-KONT

GTI515 :: KBFI-KONT

FLIGHT INFORMATION

Flight Status: Arrived
Operator:
Atlas Air
More flights by this operator :: More flights under this callsign
Pilot: Doug L. (8712)
Aircraft: BOEING 767-300
(B763)
More flights by this aircraft type
Origin: KBFI Boeing Field/King Co Intl
United States
Destination: KONT Ontario Intl
United States
More flights between these airports :: More routes between these airports
Route: +KENT8 SUMMA Q9 SUNBE FRA EHF ZIGGY7
File this flight plan on PilotEdge
Remarks:
Altitude:
(Current/Filed)
31,000ft
Speed:
(Current/Filed)
480kts
Departed: 20-Dec-18 06:49 PM
Arrived: 20-Dec-18 09:14 PM
Distance/Time
Traveled:
835nm/2:25
Distance/Time
To Go:
Arrived

Flight Plot

Page will automatically refresh every two minutes.

Flight plan parsing failed; only flown route is shown


Map Options




Map Legend


Flown Route
Filed Route
Departure Airport
Arrival Airport
Navaid (VOR, NDB)
Fix

Horizontal Profiles

Position Reports

Time Latitude Longitude Heading Altitude Ground
Speed
20-Dec-18 18:29 47.534391 -122.301913 54 29ft 0kts
20-Dec-18 18:30 47.534391 -122.301913 54 29ft 0kts
20-Dec-18 18:31 47.534391 -122.301913 54 29ft 0kts
20-Dec-18 18:32 47.534391 -122.301913 54 29ft 0kts
20-Dec-18 18:33 47.534391 -122.301913 54 29ft 0kts
20-Dec-18 18:34 47.534391 -122.301913 54 29ft 0kts
20-Dec-18 18:35 47.534391 -122.301913 54 29ft 0kts
20-Dec-18 18:37 47.534391 -122.301913 54 29ft 0kts
20-Dec-18 18:38 47.534391 -122.301913 54 29ft 0kts
20-Dec-18 18:39 47.534391 -122.301913 54 29ft 0kts
20-Dec-18 18:40 47.534391 -122.301913 54 29ft 0kts
20-Dec-18 18:41 47.534391 -122.301913 54 29ft 0kts
20-Dec-18 18:42 47.534265 -122.302171 54 29ft 0kts
20-Dec-18 18:43 47.533805 -122.302569 1 29ft 2kts
20-Dec-18 18:44 47.533464 -122.302439 330 29ft 0kts
20-Dec-18 18:45 47.533464 -122.302440 330 29ft 0kts
20-Dec-18 18:46 47.533951 -122.302850 330 29ft 8kts
20-Dec-18 18:47 47.539911 -122.308255 327 29ft 14kts
20-Dec-18 18:48 47.540432 -122.311103 219 29ft 8kts
20-Dec-18 18:49 47.523774 -122.297224 151 34ft 161kts
20-Dec-18 18:50 47.485760 -122.264185 155 1549ft 190kts
20-Dec-18 18:51 47.434229 -122.220109 156 2035ft 245kts
20-Dec-18 18:52 47.374391 -122.192938 178 4602ft 240kts
20-Dec-18 18:53 47.306278 -122.175784 178 6319ft 284kts
20-Dec-18 18:54 47.229021 -122.154635 177 8727ft 303kts
20-Dec-18 18:55 47.148530 -122.132533 176 11388ft 307kts
20-Dec-18 18:55 47.078750 -122.113378 178 13459ft 311kts
20-Dec-18 18:57 46.979910 -122.086373 179 16083ft 318kts
20-Dec-18 18:57 46.908002 -122.066789 181 17892ft 321kts
20-Dec-18 18:59 46.821254 -122.043225 182 20201ft 318kts
20-Dec-18 19:00 46.746973 -122.023112 182 22120ft 315kts
20-Dec-18 19:00 46.675365 -122.003798 182 23783ft 315kts
20-Dec-18 19:02 46.574650 -121.977816 182 25767ft 319kts
20-Dec-18 19:02 46.500933 -121.959920 183 26968ft 327kts
20-Dec-18 19:03 46.416696 -121.939535 183 28176ft 336kts
20-Dec-18 19:04 46.323917 -121.917126 183 29505ft 342kts
20-Dec-18 19:05 46.229085 -121.894390 183 30290ft 360kts
20-Dec-18 19:06 46.126493 -121.869815 182 30954ft 383kts
20-Dec-18 19:07 46.021312 -121.844624 182 32069ft 388kts
20-Dec-18 19:08 45.914580 -121.819205 183 32947ft 393kts
20-Dec-18 19:09 45.813695 -121.795310 183 33674ft 397kts
20-Dec-18 19:10 45.704792 -121.769601 183 34333ft 400kts
20-Dec-18 19:11 45.594781 -121.743741 182 34815ft 404kts
20-Dec-18 19:12 45.484786 -121.717957 182 35043ft 402kts
20-Dec-18 19:13 45.375157 -121.692379 182 35057ft 402kts
20-Dec-18 19:14 45.265029 -121.666794 183 35057ft 401kts
20-Dec-18 19:15 45.155117 -121.641357 183 35055ft 401kts
20-Dec-18 19:16 45.045534 -121.616090 183 35056ft 401kts
20-Dec-18 19:17 44.937976 -121.591391 183 35064ft 400kts
20-Dec-18 19:18 44.831470 -121.567040 183 35077ft 401kts
20-Dec-18 19:19 44.721197 -121.541902 183 35074ft 401kts
20-Dec-18 19:20 44.611750 -121.517048 183 35075ft 400kts
20-Dec-18 19:21 44.501852 -121.492198 183 35073ft 400kts
20-Dec-18 19:22 44.396353 -121.468414 183 35064ft 399kts
20-Dec-18 19:23 44.287040 -121.443877 183 35053ft 400kts
20-Dec-18 19:24 44.177628 -121.419408 183 35051ft 400kts
20-Dec-18 19:25 44.068306 -121.395041 184 35049ft 399kts
20-Dec-18 19:26 43.958985 -121.370780 184 35046ft 398kts
20-Dec-18 19:27 43.854412 -121.347668 184 35056ft 398kts
20-Dec-18 19:28 43.746098 -121.323615 184 35052ft 396kts
20-Dec-18 19:29 43.637548 -121.299597 184 35060ft 395kts
20-Dec-18 19:30 43.529649 -121.275813 184 35058ft 393kts
20-Dec-18 19:31 43.422166 -121.252199 184 35057ft 392kts
20-Dec-18 19:32 43.314755 -121.228687 184 35056ft 391kts
20-Dec-18 19:33 43.207751 -121.205350 184 35054ft 390kts
20-Dec-18 19:34 43.101221 -121.182188 184 35061ft 388kts
20-Dec-18 19:35 42.995384 -121.159261 184 35065ft 386kts
20-Dec-18 19:36 42.890706 -121.136671 184 35065ft 383kts
20-Dec-18 19:37 42.785484 -121.114045 184 35072ft 383kts
20-Dec-18 19:38 42.680502 -121.091543 184 35068ft 383kts
20-Dec-18 19:39 42.575208 -121.069075 184 35072ft 387kts
20-Dec-18 19:40 42.468306 -121.046327 184 35071ft 393kts
20-Dec-18 19:41 42.359922 -121.023316 184 35066ft 396kts
20-Dec-18 19:42 42.255754 -121.001281 184 35067ft 396kts
20-Dec-18 19:43 42.149590 -120.978931 184 35061ft 398kts
20-Dec-18 19:44 42.039641 -120.955849 184 35064ft 404kts
20-Dec-18 19:45 41.929254 -120.932716 184 35080ft 403kts
20-Dec-18 19:46 41.819465 -120.909831 184 35097ft 403kts
20-Dec-18 19:47 41.708906 -120.886857 184 35096ft 403kts
20-Dec-18 19:48 41.598484 -120.863992 184 35095ft 403kts
20-Dec-18 19:49 41.487939 -120.841181 184 35094ft 403kts
20-Dec-18 19:50 41.377569 -120.818483 184 35092ft 403kts
20-Dec-18 19:51 41.267914 -120.796017 184 35095ft 406kts
20-Dec-18 19:52 41.156416 -120.773253 184 35088ft 407kts
20-Dec-18 19:53 41.044883 -120.750549 184 35090ft 407kts
20-Dec-18 19:54 40.932796 -120.720210 179 35089ft 415kts
20-Dec-18 19:55 40.826764 -120.687222 179 35102ft 415kts
20-Dec-18 19:56 40.714362 -120.652448 179 35112ft 417kts
20-Dec-18 19:57 40.601722 -120.617733 179 35127ft 417kts
20-Dec-18 19:58 40.489267 -120.583197 179 35127ft 418kts
20-Dec-18 19:59 40.376253 -120.548612 179 35126ft 418kts
20-Dec-18 20:00 40.263401 -120.514183 179 35136ft 418kts
20-Dec-18 20:01 40.150401 -120.479843 179 35167ft 420kts
20-Dec-18 20:02 40.037011 -120.445491 179 35169ft 420kts
20-Dec-18 20:03 39.923312 -120.411165 179 35168ft 420kts
20-Dec-18 20:04 39.810901 -120.377352 179 35179ft 420kts
20-Dec-18 20:05 39.697210 -120.343306 179 35164ft 426kts
20-Dec-18 20:06 39.580814 -120.308522 179 35185ft 433kts
20-Dec-18 20:07 39.463136 -120.273447 179 35204ft 436kts
20-Dec-18 20:08 39.345763 -120.238605 179 35203ft 436kts
20-Dec-18 20:09 39.227870 -120.203742 179 35195ft 435kts
20-Dec-18 20:10 39.109856 -120.168961 179 35182ft 435kts
20-Dec-18 20:11 38.992703 -120.134556 179 35175ft 434kts
20-Dec-18 20:12 38.885239 -120.103092 179 35189ft 435kts
20-Dec-18 20:13 38.767919 -120.068851 179 35193ft 435kts
20-Dec-18 20:14 38.650126 -120.034599 179 35190ft 435kts
20-Dec-18 20:15 38.532200 -120.000416 179 35196ft 435kts
20-Dec-18 20:16 38.413986 -119.966271 179 35190ft 437kts
20-Dec-18 20:17 38.295731 -119.932224 179 35184ft 437kts
20-Dec-18 20:18 38.177134 -119.898192 179 35181ft 437kts
20-Dec-18 20:19 38.058941 -119.864390 179 35180ft 437kts
20-Dec-18 20:20 37.940587 -119.830658 179 35179ft 437kts
20-Dec-18 20:21 37.824477 -119.797681 179 35192ft 438kts
20-Dec-18 20:22 37.705891 -119.764103 179 35195ft 438kts
20-Dec-18 20:23 37.587565 -119.730699 179 35200ft 438kts
20-Dec-18 20:24 37.468604 -119.697241 179 35198ft 441kts
20-Dec-18 20:25 37.349388 -119.663801 178 35197ft 441kts
20-Dec-18 20:26 37.230222 -119.630491 178 35195ft 441kts
20-Dec-18 20:27 37.111641 -119.597451 178 35187ft 442kts
20-Dec-18 20:28 36.992165 -119.560237 177 35186ft 446kts
20-Dec-18 20:29 36.873280 -119.523043 176 35198ft 446kts
20-Dec-18 20:30 36.753072 -119.485570 176 35195ft 446kts
20-Dec-18 20:31 36.633292 -119.448350 176 35194ft 447kts
20-Dec-18 20:32 36.513205 -119.411151 176 35200ft 446kts
20-Dec-18 20:33 36.393322 -119.374137 176 35202ft 446kts
20-Dec-18 20:34 36.273764 -119.337342 177 35183ft 447kts
20-Dec-18 20:35 36.153381 -119.300408 177 35183ft 447kts
20-Dec-18 20:36 36.033123 -119.263623 177 35183ft 447kts
20-Dec-18 20:37 35.912158 -119.226766 176 35172ft 452kts
20-Dec-18 20:38 35.796915 -119.191704 176 35163ft 451kts
20-Dec-18 20:39 35.674869 -119.154703 176 34173ft 448kts
20-Dec-18 20:40 35.555356 -119.118648 176 32576ft 447kts
20-Dec-18 20:41 35.440004 -119.054981 150 31007ft 483kts
20-Dec-18 20:43 35.335608 -118.955385 150 29408ft 472kts
20-Dec-18 20:44 35.233769 -118.858738 150 27813ft 457kts
20-Dec-18 20:45 35.134778 -118.765118 150 26414ft 445kts
20-Dec-18 20:46 35.044390 -118.662560 138 25007ft 449kts
20-Dec-18 20:47 34.965726 -118.548079 137 23428ft 436kts
20-Dec-18 20:48 34.889085 -118.436517 137 21942ft 426kts
20-Dec-18 20:49 34.825245 -118.343831 137 20720ft 419kts
20-Dec-18 20:50 34.752226 -118.238090 137 19498ft 411kts
20-Dec-18 20:51 34.679553 -118.133158 136 18298ft 404kts
20-Dec-18 20:52 34.613383 -118.023891 124 17238ft 406kts
20-Dec-18 20:53 34.559209 -117.905565 124 16142ft 397kts
20-Dec-18 20:54 34.506120 -117.789686 124 15050ft 389kts
20-Dec-18 20:55 34.454902 -117.678177 124 14052ft 362kts
20-Dec-18 20:56 34.409369 -117.579382 124 14066ft 322kts
20-Dec-18 20:57 34.365526 -117.484612 124 14067ft 324kts
20-Dec-18 20:58 34.321466 -117.389551 124 14067ft 324kts
20-Dec-18 20:59 34.256937 -117.330833 171 13017ft 292kts
20-Dec-18 21:00 34.182157 -117.307226 171 11270ft 289kts
20-Dec-18 21:01 34.109474 -117.306958 222 9504ft 264kts
20-Dec-18 21:02 34.055991 -117.367629 226 7721ft 263kts
20-Dec-18 21:03 33.996006 -117.404616 159 5998ft 266kts
20-Dec-18 21:03 33.957921 -117.349016 121 4585ft 259kts
20-Dec-18 21:04 33.963058 -117.273500 51 4200ft 255kts
20-Dec-18 21:05 34.010136 -117.210976 18 4197ft 242kts
20-Dec-18 21:06 34.047955 -117.250085 282 4195ft 188kts
20-Dec-18 21:07 34.057131 -117.311878 268 4207ft 188kts
20-Dec-18 21:08 34.056899 -117.374923 270 4220ft 189kts
20-Dec-18 21:09 34.056996 -117.431468 270 3389ft 185kts
20-Dec-18 21:10 34.057002 -117.488261 270 2484ft 166kts
20-Dec-18 21:11 34.056973 -117.542782 270 1617ft 164kts
20-Dec-18 21:12 34.056937 -117.594742 270 934ft 105kts
20-Dec-18 21:13 34.057863 -117.608082 310 944ft 8kts
20-Dec-18 21:14 34.058013 -117.609725 270 948ft 21kts
20-Dec-18 21:15 34.058005 -117.619307 269 955ft 30kts
20-Dec-18 21:16 34.059828 -117.622684 274 962ft 0kts

Navigation Log

Ident Type
Flight plan parsing failed, navigation log unavailable